sensor_id;sensor_type;location;lat;lon;timestamp;P1;durP1;ratioP1;P2;durP2;ratioP2
47431;SDS011;33183;52.290;6.144;2022-11-15T00:00:03;5.43;;;4.05;;
47431;SDS011;33183;52.290;6.144;2022-11-15T00:02:28;5.82;;;3.67;;
47431;SDS011;33183;52.290;6.144;2022-11-15T00:04:53;4.78;;;3.67;;
47431;SDS011;33183;52.290;6.144;2022-11-15T00:07:19;4.78;;;3.80;;
47431;SDS011;33183;52.290;6.144;2022-11-15T00:09:44;5.15;;;3.97;;
47431;SDS011;33183;52.290;6.144;2022-11-15T00:12:09;4.00;;;3.47;;
47431;SDS011;33183;52.290;6.144;2022-11-15T00:14:35;4.35;;;3.83;;
47431;SDS011;33183;52.290;6.144;2022-11-15T00:17:00;5.38;;;4.10;;
47431;SDS011;33183;52.290;6.144;2022-11-15T00:19:25;4.63;;;3.97;;
47431;SDS011;33183;52.290;6.144;2022-11-15T00:21:50;4.07;;;3.67;;
47431;SDS011;33183;52.290;6.144;2022-11-15T00:24:16;4.07;;;3.38;;
47431;SDS011;33183;52.290;6.144;2022-11-15T00:26:41;5.32;;;3.95;;
47431;SDS011;33183;52.290;6.144;2022-11-15T00:29:06;4.50;;;3.55;;
47431;SDS011;33183;52.290;6.144;2022-11-15T00:31:32;5.13;;;3.85;;
47431;SDS011;33183;52.290;6.144;2022-11-15T00:33:57;4.63;;;3.80;;
47431;SDS011;33183;52.290;6.144;2022-11-15T00:36:22;4.63;;;3.85;;
47431;SDS011;33183;52.290;6.144;2022-11-15T00:38:47;4.47;;;3.60;;
47431;SDS011;33183;52.290;6.144;2022-11-15T00:41:13;4.28;;;3.63;;
47431;SDS011;33183;52.290;6.144;2022-11-15T00:43:38;4.93;;;3.72;;
47431;SDS011;33183;52.290;6.144;2022-11-15T00:46:04;4.20;;;3.50;;
47431;SDS011;33183;52.290;6.144;2022-11-15T00:48:30;4.35;;;3.83;;
47431;SDS011;33183;52.290;6.144;2022-11-15T00:50:56;4.80;;;3.63;;
47431;SDS011;33183;52.290;6.144;2022-11-15T00:53:22;4.85;;;3.53;;
47431;SDS011;33183;52.290;6.144;2022-11-15T00:55:47;4.15;;;3.45;;
47431;SDS011;33183;52.290;6.144;2022-11-15T00:58:12;4.60;;;4.05;;
47431;SDS011;33183;52.290;6.144;2022-11-15T01:00:37;3.97;;;3.47;;
47431;SDS011;33183;52.290;6.144;2022-11-15T01:03:03;4.20;;;3.65;;
47431;SDS011;33183;52.290;6.144;2022-11-15T01:05:28;4.72;;;3.65;;
47431;SDS011;33183;52.290;6.144;2022-11-15T01:07:54;4.13;;;3.60;;
47431;SDS011;33183;52.290;6.144;2022-11-15T01:10:20;4.10;;;3.25;;
47431;SDS011;33183;52.290;6.144;2022-11-15T01:12:46;4.35;;;3.53;;
47431;SDS011;33183;52.290;6.144;2022-11-15T01:15:11;4.47;;;3.42;;
47431;SDS011;33183;52.290;6.144;2022-11-15T01:17:36;4.90;;;3.60;;
47431;SDS011;33183;52.290;6.144;2022-11-15T01:20:02;3.95;;;3.28;;
47431;SDS011;33183;52.290;6.144;2022-11-15T01:22:27;5.28;;;4.07;;
47431;SDS011;33183;52.290;6.144;2022-11-15T01:24:53;5.25;;;3.50;;
47431;SDS011;33183;52.290;6.144;2022-11-15T01:27:18;4.22;;;3.78;;
47431;SDS011;33183;52.290;6.144;2022-11-15T01:29:43;4.20;;;3.05;;
47431;SDS011;33183;52.290;6.144;2022-11-15T01:32:08;4.88;;;3.80;;
47431;SDS011;33183;52.290;6.144;2022-11-15T01:34:34;3.92;;;3.53;;
47431;SDS011;33183;52.290;6.144;2022-11-15T01:36:59;5.38;;;3.90;;
47431;SDS011;33183;52.290;6.144;2022-11-15T01:39:24;3.97;;;3.58;;
47431;SDS011;33183;52.290;6.144;2022-11-15T01:41:50;4.10;;;3.28;;
47431;SDS011;33183;52.290;6.144;2022-11-15T01:46:59;4.40;;;3.50;;
47431;SDS011;33183;52.290;6.144;2022-11-15T01:49:27;5.00;;;3.67;;
47431;SDS011;33183;52.290;6.144;2022-11-15T01:51:55;4.90;;;3.70;;
47431;SDS011;33183;52.290;6.144;2022-11-15T01:54:21;4.00;;;3.28;;
47431;SDS011;33183;52.290;6.144;2022-11-15T01:56:50;5.95;;;4.13;;
47431;SDS011;33183;52.290;6.144;2022-11-15T01:59:17;4.45;;;3.58;;
47431;SDS011;33183;52.290;6.144;2022-11-15T02:01:43;4.57;;;3.53;;
47431;SDS011;33183;52.290;6.144;2022-11-15T02:04:10;3.60;;;3.20;;
47431;SDS011;33183;52.290;6.144;2022-11-15T02:06:38;4.00;;;3.42;;
47431;SDS011;33183;52.290;6.144;2022-11-15T02:09:05;5.05;;;3.80;;
47431;SDS011;33183;52.290;6.144;2022-11-15T02:11:30;5.05;;;3.47;;
47431;SDS011;33183;52.290;6.144;2022-11-15T02:13:56;4.90;;;3.50;;
47431;SDS011;33183;52.290;6.144;2022-11-15T02:32:28;3.65;;;3.35;;
47431;SDS011;33183;52.290;6.144;2022-11-15T02:38:08;4.00;;;3.50;;
47431;SDS011;33183;52.290;6.144;2022-11-15T02:43:21;5.95;;;3.47;;
47431;SDS011;33183;52.290;6.144;2022-11-15T02:46:13;4.35;;;3.38;;
47431;SDS011;33183;52.290;6.144;2022-11-15T02:48:42;4.43;;;3.42;;
47431;SDS011;33183;52.290;6.144;2022-11-15T02:51:08;4.07;;;3.63;;
47431;SDS011;33183;52.290;6.144;2022-11-15T02:53:34;3.78;;;3.38;;
47431;SDS011;33183;52.290;6.144;2022-11-15T02:55:59;4.70;;;3.03;;
47431;SDS011;33183;52.290;6.144;2022-11-15T02:58:45;4.00;;;3.25;;
47431;SDS011;33183;52.290;6.144;2022-11-15T03:02:08;4.25;;;3.50;;
47431;SDS011;33183;52.290;6.144;2022-11-15T03:07:11;4.25;;;3.45;;
47431;SDS011;33183;52.290;6.144;2022-11-15T03:10:24;4.03;;;3.33;;
47431;SDS011;33183;52.290;6.144;2022-11-15T03:12:49;4.28;;;3.10;;
47431;SDS011;33183;52.290;6.144;2022-11-15T03:15:18;3.97;;;3.58;;
47431;SDS011;33183;52.290;6.144;2022-11-15T03:17:55;3.80;;;3.22;;
47431;SDS011;33183;52.290;6.144;2022-11-15T03:20:24;4.10;;;3.20;;
47431;SDS011;33183;52.290;6.144;2022-11-15T03:22:52;3.95;;;3.20;;
47431;SDS011;33183;52.290;6.144;2022-11-15T03:25:19;4.15;;;3.00;;
47431;SDS011;33183;52.290;6.144;2022-11-15T03:27:47;4.00;;;3.60;;
47431;SDS011;33183;52.290;6.144;2022-11-15T03:30:15;3.97;;;3.30;;
47431;SDS011;33183;52.290;6.144;2022-11-15T03:32:43;3.85;;;3.40;;
47431;SDS011;33183;52.290;6.144;2022-11-15T03:37:42;3.92;;;3.15;;
47431;SDS011;33183;52.290;6.144;2022-11-15T03:40:10;4.20;;;3.42;;
47431;SDS011;33183;52.290;6.144;2022-11-15T03:42:38;3.63;;;3.30;;
47431;SDS011;33183;52.290;6.144;2022-11-15T03:45:24;3.80;;;3.30;;
47431;SDS011;33183;52.290;6.144;2022-11-15T03:47:53;3.47;;;3.15;;
47431;SDS011;33183;52.290;6.144;2022-11-15T03:50:23;4.15;;;3.20;;
47431;SDS011;33183;52.290;6.144;2022-11-15T03:52:49;3.88;;;3.35;;
47431;SDS011;33183;52.290;6.144;2022-11-15T03:55:16;3.80;;;3.40;;
47431;SDS011;33183;52.290;6.144;2022-11-15T03:57:43;2.80;;;2.53;;
47431;SDS011;33183;52.290;6.144;2022-11-15T04:00:08;4.03;;;2.97;;
47431;SDS011;33183;52.290;6.144;2022-11-15T04:02:34;3.70;;;2.80;;
47431;SDS011;33183;52.290;6.144;2022-11-15T04:04:59;3.55;;;3.05;;
47431;SDS011;33183;52.290;6.144;2022-11-15T04:07:25;3.33;;;2.88;;
47431;SDS011;33183;52.290;6.144;2022-11-15T04:09:50;3.53;;;2.92;;
47431;SDS011;33183;52.290;6.144;2022-11-15T04:12:28;3.20;;;2.90;;
47431;SDS011;33183;52.290;6.144;2022-11-15T04:15:02;3.10;;;2.70;;
47431;SDS011;33183;52.290;6.144;2022-11-15T04:17:51;3.40;;;3.03;;
47431;SDS011;33183;52.290;6.144;2022-11-15T04:20:19;2.92;;;2.63;;
47431;SDS011;33183;52.290;6.144;2022-11-15T04:23:11;3.40;;;2.88;;
47431;SDS011;33183;52.290;6.144;2022-11-15T04:25:58;3.03;;;2.72;;
47431;SDS011;33183;52.290;6.144;2022-11-15T04:28:26;3.08;;;2.78;;
47431;SDS011;33183;52.290;6.144;2022-11-15T04:30:51;3.50;;;3.15;;
47431;SDS011;33183;52.290;6.144;2022-11-15T04:33:17;3.30;;;3.00;;
47431;SDS011;33183;52.290;6.144;2022-11-15T04:35:42;3.70;;;3.38;;
47431;SDS011;33183;52.290;6.144;2022-11-15T04:38:09;3.28;;;2.97;;
47431;SDS011;33183;52.290;6.144;2022-11-15T04:40:35;3.72;;;3.08;;
47431;SDS011;33183;52.290;6.144;2022-11-15T04:43:01;4.03;;;3.47;;
47431;SDS011;33183;52.290;6.144;2022-11-15T04:45:27;4.32;;;3.30;;
47431;SDS011;33183;52.290;6.144;2022-11-15T04:47:52;3.45;;;2.97;;
47431;SDS011;33183;52.290;6.144;2022-11-15T04:50:17;3.10;;;2.80;;
47431;SDS011;33183;52.290;6.144;2022-11-15T04:52:44;3.78;;;3.00;;
47431;SDS011;33183;52.290;6.144;2022-11-15T04:55:15;3.70;;;3.00;;
47431;SDS011;33183;52.290;6.144;2022-11-15T04:57:40;3.92;;;3.15;;
47431;SDS011;33183;52.290;6.144;2022-11-15T05:00:07;3.03;;;2.72;;
47431;SDS011;33183;52.290;6.144;2022-11-15T05:02:34;3.40;;;3.10;;
47431;SDS011;33183;52.290;6.144;2022-11-15T05:05:17;3.67;;;3.00;;
47431;SDS011;33183;52.290;6.144;2022-11-15T05:07:42;3.50;;;2.60;;
47431;SDS011;33183;52.290;6.144;2022-11-15T05:10:08;3.25;;;2.70;;
47431;SDS011;33183;52.290;6.144;2022-11-15T05:12:33;4.07;;;3.30;;
47431;SDS011;33183;52.290;6.144;2022-11-15T05:14:58;3.75;;;3.33;;
47431;SDS011;33183;52.290;6.144;2022-11-15T05:17:24;4.50;;;2.90;;
47431;SDS011;33183;52.290;6.144;2022-11-15T05:19:49;4.13;;;3.30;;
47431;SDS011;33183;52.290;6.144;2022-11-15T05:22:16;3.92;;;3.13;;
47431;SDS011;33183;52.290;6.144;2022-11-15T05:24:42;3.22;;;2.80;;
47431;SDS011;33183;52.290;6.144;2022-11-15T05:27:07;3.58;;;2.72;;
47431;SDS011;33183;52.290;6.144;2022-11-15T05:29:32;3.97;;;2.88;;
47431;SDS011;33183;52.290;6.144;2022-11-15T05:31:57;3.00;;;2.70;;
47431;SDS011;33183;52.290;6.144;2022-11-15T05:34:22;6.15;;;3.30;;
47431;SDS011;33183;52.290;6.144;2022-11-15T05:36:50;4.15;;;3.10;;
47431;SDS011;33183;52.290;6.144;2022-11-15T05:39:15;4.47;;;2.90;;
47431;SDS011;33183;52.290;6.144;2022-11-15T05:41:45;3.30;;;2.88;;
47431;SDS011;33183;52.290;6.144;2022-11-15T05:44:17;3.00;;;2.47;;
47431;SDS011;33183;52.290;6.144;2022-11-15T05:46:43;4.38;;;3.05;;
47431;SDS011;33183;52.290;6.144;2022-11-15T05:49:09;3.20;;;2.85;;
47431;SDS011;33183;52.290;6.144;2022-11-15T05:51:37;4.75;;;2.95;;
47431;SDS011;33183;52.290;6.144;2022-11-15T05:54:03;4.65;;;3.45;;
47431;SDS011;33183;52.290;6.144;2022-11-15T05:56:28;4.13;;;2.85;;
47431;SDS011;33183;52.290;6.144;2022-11-15T05:58:54;3.78;;;2.80;;
47431;SDS011;33183;52.290;6.144;2022-11-15T06:01:20;3.13;;;2.83;;
47431;SDS011;33183;52.290;6.144;2022-11-15T06:03:45;3.10;;;2.80;;
47431;SDS011;33183;52.290;6.144;2022-11-15T06:06:11;2.70;;;2.42;;
47431;SDS011;33183;52.290;6.144;2022-11-15T06:08:36;3.17;;;2.72;;
47431;SDS011;33183;52.290;6.144;2022-11-15T06:11:05;3.22;;;2.80;;
47431;SDS011;33183;52.290;6.144;2022-11-15T06:13:31;4.07;;;3.00;;
47431;SDS011;33183;52.290;6.144;2022-11-15T06:15:57;3.67;;;2.70;;
47431;SDS011;33183;52.290;6.144;2022-11-15T06:18:22;3.97;;;2.78;;
47431;SDS011;33183;52.290;6.144;2022-11-15T06:20:47;2.88;;;2.58;;
47431;SDS011;33183;52.290;6.144;2022-11-15T06:23:13;4.60;;;3.45;;
47431;SDS011;33183;52.290;6.144;2022-11-15T06:25:38;3.30;;;2.38;;
47431;SDS011;33183;52.290;6.144;2022-11-15T06:28:03;3.42;;;2.60;;
47431;SDS011;33183;52.290;6.144;2022-11-15T06:30:29;2.95;;;2.65;;
47431;SDS011;33183;52.290;6.144;2022-11-15T06:33:04;3.40;;;2.67;;
47431;SDS011;33183;52.290;6.144;2022-11-15T06:35:30;3.20;;;2.65;;
47431;SDS011;33183;52.290;6.144;2022-11-15T06:38:01;3.45;;;2.95;;
47431;SDS011;33183;52.290;6.144;2022-11-15T06:40:28;3.60;;;2.95;;
47431;SDS011;33183;52.290;6.144;2022-11-15T06:42:57;4.20;;;2.63;;
47431;SDS011;33183;52.290;6.144;2022-11-15T06:45:24;4.97;;;2.92;;
47431;SDS011;33183;52.290;6.144;2022-11-15T06:47:49;6.15;;;3.25;;
47431;SDS011;33183;52.290;6.144;2022-11-15T06:50:14;3.80;;;2.80;;
47431;SDS011;33183;52.290;6.144;2022-11-15T06:52:40;3.53;;;2.60;;
47431;SDS011;33183;52.290;6.144;2022-11-15T06:55:05;4.43;;;2.60;;
47431;SDS011;33183;52.290;6.144;2022-11-15T06:57:31;3.50;;;2.58;;
47431;SDS011;33183;52.290;6.144;2022-11-15T06:59:57;4.43;;;2.72;;
47431;SDS011;33183;52.290;6.144;2022-11-15T07:02:22;4.40;;;2.88;;
47431;SDS011;33183;52.290;6.144;2022-11-15T07:04:47;3.42;;;2.50;;
47431;SDS011;33183;52.290;6.144;2022-11-15T07:07:12;2.80;;;2.40;;
47431;SDS011;33183;52.290;6.144;2022-11-15T07:09:38;3.40;;;2.60;;
47431;SDS011;33183;52.290;6.144;2022-11-15T07:12:03;3.55;;;2.70;;
47431;SDS011;33183;52.290;6.144;2022-11-15T07:14:29;3.90;;;2.80;;
47431;SDS011;33183;52.290;6.144;2022-11-15T07:16:54;3.15;;;2.47;;
47431;SDS011;33183;52.290;6.144;2022-11-15T07:19:19;3.45;;;2.78;;
47431;SDS011;33183;52.290;6.144;2022-11-15T07:21:44;3.80;;;3.10;;
47431;SDS011;33183;52.290;6.144;2022-11-15T07:24:09;4.53;;;2.45;;
47431;SDS011;33183;52.290;6.144;2022-11-15T07:26:35;3.55;;;2.60;;
47431;SDS011;33183;52.290;6.144;2022-11-15T07:29:00;3.30;;;2.53;;
47431;SDS011;33183;52.290;6.144;2022-11-15T07:31:25;4.47;;;2.90;;
47431;SDS011;33183;52.290;6.144;2022-11-15T07:33:50;2.85;;;2.42;;
47431;SDS011;33183;52.290;6.144;2022-11-15T07:36:16;3.25;;;2.50;;
47431;SDS011;33183;52.290;6.144;2022-11-15T07:38:41;3.97;;;2.75;;
47431;SDS011;33183;52.290;6.144;2022-11-15T07:41:07;3.03;;;2.40;;
47431;SDS011;33183;52.290;6.144;2022-11-15T07:43:32;3.72;;;3.20;;
47431;SDS011;33183;52.290;6.144;2022-11-15T07:45:59;2.78;;;2.30;;
47431;SDS011;33183;52.290;6.144;2022-11-15T07:48:30;3.47;;;2.63;;
47431;SDS011;33183;52.290;6.144;2022-11-15T07:50:55;3.38;;;2.65;;
47431;SDS011;33183;52.290;6.144;2022-11-15T07:53:20;4.20;;;2.70;;
47431;SDS011;33183;52.290;6.144;2022-11-15T07:55:45;2.85;;;2.35;;
47431;SDS011;33183;52.290;6.144;2022-11-15T07:58:11;3.78;;;3.08;;
47431;SDS011;33183;52.290;6.144;2022-11-15T08:00:37;3.80;;;2.92;;
47431;SDS011;33183;52.290;6.144;2022-11-15T08:03:03;6.22;;;2.63;;
47431;SDS011;33183;52.290;6.144;2022-11-15T08:05:30;5.53;;;2.80;;
47431;SDS011;33183;52.290;6.144;2022-11-15T08:07:55;3.50;;;2.67;;
47431;SDS011;33183;52.290;6.144;2022-11-15T08:10:21;4.35;;;2.42;;
47431;SDS011;33183;52.290;6.144;2022-11-15T08:12:46;5.80;;;3.03;;
47431;SDS011;33183;52.290;6.144;2022-11-15T08:15:11;4.57;;;2.80;;
47431;SDS011;33183;52.290;6.144;2022-11-15T08:17:37;8.20;;;3.03;;
47431;SDS011;33183;52.290;6.144;2022-11-15T08:20:02;4.30;;;2.38;;
47431;SDS011;33183;52.290;6.144;2022-11-15T08:22:28;5.60;;;2.83;;
47431;SDS011;33183;52.290;6.144;2022-11-15T08:24:53;5.05;;;2.85;;
47431;SDS011;33183;52.290;6.144;2022-11-15T08:27:18;7.10;;;2.88;;
47431;SDS011;33183;52.290;6.144;2022-11-15T08:29:44;3.67;;;2.53;;
47431;SDS011;33183;52.290;6.144;2022-11-15T08:32:10;4.28;;;2.50;;
47431;SDS011;33183;52.290;6.144;2022-11-15T08:34:36;6.47;;;2.90;;
47431;SDS011;33183;52.290;6.144;2022-11-15T08:37:02;8.35;;;4.10;;
47431;SDS011;33183;52.290;6.144;2022-11-15T08:39:27;5.95;;;2.80;;
47431;SDS011;33183;52.290;6.144;2022-11-15T08:41:53;3.38;;;2.67;;
47431;SDS011;33183;52.290;6.144;2022-11-15T08:44:18;7.13;;;3.38;;
47431;SDS011;33183;52.290;6.144;2022-11-15T08:46:45;4.93;;;3.28;;
47431;SDS011;33183;52.290;6.144;2022-11-15T08:49:10;4.13;;;3.17;;
47431;SDS011;33183;52.290;6.144;2022-11-15T08:51:36;4.95;;;2.95;;
47431;SDS011;33183;52.290;6.144;2022-11-15T08:54:01;3.13;;;2.60;;
47431;SDS011;33183;52.290;6.144;2022-11-15T08:56:26;5.07;;;2.63;;
47431;SDS011;33183;52.290;6.144;2022-11-15T08:58:52;4.30;;;2.97;;
47431;SDS011;33183;52.290;6.144;2022-11-15T09:01:18;4.85;;;2.78;;
47431;SDS011;33183;52.290;6.144;2022-11-15T09:03:44;3.97;;;2.40;;
47431;SDS011;33183;52.290;6.144;2022-11-15T09:06:10;3.17;;;2.63;;
47431;SDS011;33183;52.290;6.144;2022-11-15T09:08:35;3.60;;;2.88;;
47431;SDS011;33183;52.290;6.144;2022-11-15T09:11:04;4.40;;;2.40;;
47431;SDS011;33183;52.290;6.144;2022-11-15T09:13:33;4.28;;;2.70;;
47431;SDS011;33183;52.290;6.144;2022-11-15T09:16:00;2.92;;;2.33;;
47431;SDS011;33183;52.290;6.144;2022-11-15T09:18:26;3.65;;;2.25;;
47431;SDS011;33183;52.290;6.144;2022-11-15T09:20:54;2.20;;;2.00;;
47431;SDS011;33183;52.290;6.144;2022-11-15T09:23:21;3.58;;;2.47;;
47431;SDS011;33183;52.290;6.144;2022-11-15T09:25:46;2.97;;;2.30;;
47431;SDS011;33183;52.290;6.144;2022-11-15T09:28:12;3.53;;;2.40;;
47431;SDS011;33183;52.290;6.144;2022-11-15T09:30:37;3.85;;;2.72;;
47431;SDS011;33183;52.290;6.144;2022-11-15T09:33:06;2.80;;;2.35;;
47431;SDS011;33183;52.290;6.144;2022-11-15T09:35:35;4.78;;;2.63;;
47431;SDS011;33183;52.290;6.144;2022-11-15T09:38:00;3.10;;;2.50;;
47431;SDS011;33183;52.290;6.144;2022-11-15T09:40:26;3.55;;;2.25;;
47431;SDS011;33183;52.290;6.144;2022-11-15T09:46:00;4.10;;;2.20;;
47431;SDS011;33183;52.290;6.144;2022-11-15T09:48:55;4.05;;;2.30;;
47431;SDS011;33183;52.290;6.144;2022-11-15T09:51:26;3.20;;;2.20;;
47431;SDS011;33183;52.290;6.144;2022-11-15T09:56:44;4.32;;;2.15;;
47431;SDS011;33183;52.290;6.144;2022-11-15T09:59:17;3.90;;;2.47;;
47431;SDS011;33183;52.290;6.144;2022-11-15T10:01:53;3.42;;;2.42;;
47431;SDS011;33183;52.290;6.144;2022-11-15T10:04:32;2.67;;;2.17;;
47431;SDS011;33183;52.290;6.144;2022-11-15T10:07:01;3.95;;;2.28;;
47431;SDS011;33183;52.290;6.144;2022-11-15T10:12:38;5.70;;;2.60;;
47431;SDS011;33183;52.290;6.144;2022-11-15T10:15:06;2.80;;;1.67;;
47431;SDS011;33183;52.290;6.144;2022-11-15T10:18:23;4.20;;;2.03;;
47431;SDS011;33183;52.290;6.144;2022-11-15T10:20:29;3.70;;;2.05;;
47431;SDS011;33183;52.290;6.144;2022-11-15T10:22:56;4.63;;;2.03;;
47431;SDS011;33183;52.290;6.144;2022-11-15T10:25:28;3.08;;;1.90;;
47431;SDS011;33183;52.290;6.144;2022-11-15T10:27:59;2.25;;;2.03;;
47431;SDS011;33183;52.290;6.144;2022-11-15T10:30:38;2.85;;;1.85;;
47431;SDS011;33183;52.290;6.144;2022-11-15T10:33:21;2.17;;;1.90;;
47431;SDS011;33183;52.290;6.144;2022-11-15T10:35:48;3.20;;;1.85;;
47431;SDS011;33183;52.290;6.144;2022-11-15T10:38:13;3.85;;;2.50;;
47431;SDS011;33183;52.290;6.144;2022-11-15T10:40:39;2.63;;;1.90;;
47431;SDS011;33183;52.290;6.144;2022-11-15T10:45:34;3.22;;;2.10;;
47431;SDS011;33183;52.290;6.144;2022-11-15T10:50:37;3.72;;;2.50;;
47431;SDS011;33183;52.290;6.144;2022-11-15T10:53:02;2.97;;;2.15;;
47431;SDS011;33183;52.290;6.144;2022-11-15T10:55:29;2.28;;;1.63;;
47431;SDS011;33183;52.290;6.144;2022-11-15T10:58:06;2.30;;;1.80;;
47431;SDS011;33183;52.290;6.144;2022-11-15T11:00:52;2.85;;;1.73;;
47431;SDS011;33183;52.290;6.144;2022-11-15T11:03:28;5.97;;;1.80;;
47431;SDS011;33183;52.290;6.144;2022-11-15T11:06:14;4.03;;;1.85;;
47431;SDS011;33183;52.290;6.144;2022-11-15T11:08:52;2.15;;;1.77;;
47431;SDS011;33183;52.290;6.144;2022-11-15T11:11:19;2.90;;;1.70;;
47431;SDS011;33183;52.290;6.144;2022-11-15T11:13:44;3.20;;;2.13;;
47431;SDS011;33183;52.290;6.144;2022-11-15T11:21:26;2.28;;;1.67;;
47431;SDS011;33183;52.290;6.144;2022-11-15T11:26:45;6.05;;;2.17;;
47431;SDS011;33183;52.290;6.144;2022-11-15T11:35:06;1.95;;;1.45;;
47431;SDS011;33183;52.290;6.144;2022-11-15T11:43:34;3.05;;;1.83;;
47431;SDS011;33183;52.290;6.144;2022-11-15T11:46:14;3.17;;;1.55;;
47431;SDS011;33183;52.290;6.144;2022-11-15T11:48:43;2.10;;;1.90;;
47431;SDS011;33183;52.290;6.144;2022-11-15T11:53:42;4.75;;;1.23;;
47431;SDS011;33183;52.290;6.144;2022-11-15T11:58:52;4.43;;;1.67;;
47431;SDS011;33183;52.290;6.144;2022-11-15T12:04:03;2.60;;;1.50;;
47431;SDS011;33183;52.290;6.144;2022-11-15T12:09:30;5.25;;;1.52;;
47431;SDS011;33183;52.290;6.144;2022-11-15T12:17:21;2.88;;;1.58;;
47431;SDS011;33183;52.290;6.144;2022-11-15T12:19:48;3.33;;;1.40;;
47431;SDS011;33183;52.290;6.144;2022-11-15T12:30:38;2.10;;;1.40;;
47431;SDS011;33183;52.290;6.144;2022-11-15T12:33:04;2.55;;;1.42;;
47431;SDS011;33183;52.290;6.144;2022-11-15T12:35:37;3.15;;;1.50;;
47431;SDS011;33183;52.290;6.144;2022-11-15T12:38:08;8.70;;;1.65;;
47431;SDS011;33183;52.290;6.144;2022-11-15T12:40:35;3.58;;;1.30;;
47431;SDS011;33183;52.290;6.144;2022-11-15T12:45:50;5.47;;;1.67;;
47431;SDS011;33183;52.290;6.144;2022-11-15T12:58:27;5.95;;;1.40;;
47431;SDS011;33183;52.290;6.144;2022-11-15T13:00:54;3.20;;;1.40;;
47431;SDS011;33183;52.290;6.144;2022-11-15T13:03:20;6.43;;;2.38;;
47431;SDS011;33183;52.290;6.144;2022-11-15T13:08:39;6.65;;;1.75;;
47431;SDS011;33183;52.290;6.144;2022-11-15T13:14:34;4.68;;;1.05;;
47431;SDS011;33183;52.290;6.144;2022-11-15T13:17:17;3.05;;;1.27;;
47431;SDS011;33183;52.290;6.144;2022-11-15T13:22:40;2.50;;;1.20;;
47431;SDS011;33183;52.290;6.144;2022-11-15T13:30:38;3.40;;;1.10;;
47431;SDS011;33183;52.290;6.144;2022-11-15T13:33:13;6.20;;;1.20;;
47431;SDS011;33183;52.290;6.144;2022-11-15T13:35:40;2.53;;;1.23;;
47431;SDS011;33183;52.290;6.144;2022-11-15T13:38:06;2.35;;;1.20;;
47431;SDS011;33183;52.290;6.144;2022-11-15T13:40:35;1.23;;;0.88;;
47431;SDS011;33183;52.290;6.144;2022-11-15T13:48:39;1.75;;;1.13;;
47431;SDS011;33183;52.290;6.144;2022-11-15T13:51:08;2.90;;;1.08;;
47431;SDS011;33183;52.290;6.144;2022-11-15T13:53:47;2.67;;;1.17;;
47431;SDS011;33183;52.290;6.144;2022-11-15T13:56:16;2.38;;;1.00;;
47431;SDS011;33183;52.290;6.144;2022-11-15T13:58:43;5.00;;;1.58;;
47431;SDS011;33183;52.290;6.144;2022-11-15T14:01:13;3.15;;;1.00;;
47431;SDS011;33183;52.290;6.144;2022-11-15T14:03:45;4.35;;;2.00;;
47431;SDS011;33183;52.290;6.144;2022-11-15T14:06:14;1.23;;;1.02;;
47431;SDS011;33183;52.290;6.144;2022-11-15T14:08:42;2.65;;;0.85;;
47431;SDS011;33183;52.290;6.144;2022-11-15T14:11:22;2.45;;;1.00;;
47431;SDS011;33183;52.290;6.144;2022-11-15T14:16:38;4.35;;;1.20;;
47431;SDS011;33183;52.290;6.144;2022-11-15T14:19:12;3.47;;;1.00;;
47431;SDS011;33183;52.290;6.144;2022-11-15T14:24:50;6.40;;;1.10;;
47431;SDS011;33183;52.290;6.144;2022-11-15T14:27:37;7.20;;;1.00;;
47431;SDS011;33183;52.290;6.144;2022-11-15T14:30:02;3.90;;;0.82;;
47431;SDS011;33183;52.290;6.144;2022-11-15T14:32:29;4.20;;;1.10;;
47431;SDS011;33183;52.290;6.144;2022-11-15T14:35:02;2.92;;;1.30;;
47431;SDS011;33183;52.290;6.144;2022-11-15T14:37:29;3.67;;;1.00;;
47431;SDS011;33183;52.290;6.144;2022-11-15T14:40:00;4.18;;;0.82;;
47431;SDS011;33183;52.290;6.144;2022-11-15T14:42:26;4.75;;;0.93;;
47431;SDS011;33183;52.290;6.144;2022-11-15T14:44:52;7.78;;;1.02;;
47431;SDS011;33183;52.290;6.144;2022-11-15T14:47:17;3.25;;;0.90;;
47431;SDS011;33183;52.290;6.144;2022-11-15T14:49:43;1.63;;;0.80;;
47431;SDS011;33183;52.290;6.144;2022-11-15T14:52:16;3.00;;;0.90;;
47431;SDS011;33183;52.290;6.144;2022-11-15T14:54:48;3.97;;;0.88;;
47431;SDS011;33183;52.290;6.144;2022-11-15T14:57:13;2.28;;;0.85;;
47431;SDS011;33183;52.290;6.144;2022-11-15T14:59:38;4.32;;;1.08;;
47431;SDS011;33183;52.290;6.144;2022-11-15T15:02:08;2.05;;;0.90;;
47431;SDS011;33183;52.290;6.144;2022-11-15T15:04:38;2.83;;;0.90;;
47431;SDS011;33183;52.290;6.144;2022-11-15T15:07:03;2.53;;;0.73;;
47431;SDS011;33183;52.290;6.144;2022-11-15T15:09:29;3.10;;;1.05;;
47431;SDS011;33183;52.290;6.144;2022-11-15T15:11:54;3.10;;;0.90;;
47431;SDS011;33183;52.290;6.144;2022-11-15T15:14:20;4.00;;;1.08;;
47431;SDS011;33183;52.290;6.144;2022-11-15T15:16:45;3.22;;;1.00;;
47431;SDS011;33183;52.290;6.144;2022-11-15T15:19:10;2.70;;;1.10;;
47431;SDS011;33183;52.290;6.144;2022-11-15T15:21:36;3.05;;;1.00;;
47431;SDS011;33183;52.290;6.144;2022-11-15T15:24:02;3.55;;;1.50;;
47431;SDS011;33183;52.290;6.144;2022-11-15T15:26:27;3.78;;;1.13;;
47431;SDS011;33183;52.290;6.144;2022-11-15T15:28:53;2.63;;;0.90;;
47431;SDS011;33183;52.290;6.144;2022-11-15T15:31:18;2.50;;;0.95;;
47431;SDS011;33183;52.290;6.144;2022-11-15T15:33:43;2.08;;;0.93;;
47431;SDS011;33183;52.290;6.144;2022-11-15T15:36:13;3.17;;;1.13;;
47431;SDS011;33183;52.290;6.144;2022-11-15T15:38:39;3.13;;;1.45;;
47431;SDS011;33183;52.290;6.144;2022-11-15T15:41:10;2.03;;;0.80;;
47431;SDS011;33183;52.290;6.144;2022-11-15T15:43:39;1.42;;;1.00;;
47431;SDS011;33183;52.290;6.144;2022-11-15T15:46:04;2.30;;;0.95;;
47431;SDS011;33183;52.290;6.144;2022-11-15T15:48:32;1.90;;;1.10;;
47431;SDS011;33183;52.290;6.144;2022-11-15T15:50:58;1.90;;;1.00;;
47431;SDS011;33183;52.290;6.144;2022-11-15T15:53:23;1.27;;;0.90;;
47431;SDS011;33183;52.290;6.144;2022-11-15T15:55:49;3.13;;;1.00;;
47431;SDS011;33183;52.290;6.144;2022-11-15T15:58:14;4.18;;;1.00;;
47431;SDS011;33183;52.290;6.144;2022-11-15T16:00:39;2.17;;;0.80;;
47431;SDS011;33183;52.290;6.144;2022-11-15T16:03:05;1.10;;;0.70;;
47431;SDS011;33183;52.290;6.144;2022-11-15T16:05:30;2.55;;;1.08;;
47431;SDS011;33183;52.290;6.144;2022-11-15T16:07:55;2.70;;;0.85;;
47431;SDS011;33183;52.290;6.144;2022-11-15T16:10:34;5.47;;;1.25;;
47431;SDS011;33183;52.290;6.144;2022-11-15T16:15:26;2.72;;;1.02;;
47431;SDS011;33183;52.290;6.144;2022-11-15T16:17:53;1.25;;;0.70;;
47431;SDS011;33183;52.290;6.144;2022-11-15T16:20:37;3.60;;;1.02;;
47431;SDS011;33183;52.290;6.144;2022-11-15T16:23:05;1.90;;;1.00;;
47431;SDS011;33183;52.290;6.144;2022-11-15T16:25:33;2.40;;;0.90;;
47431;SDS011;33183;52.290;6.144;2022-11-15T16:28:02;1.33;;;0.75;;
47431;SDS011;33183;52.290;6.144;2022-11-15T16:30:27;2.53;;;0.77;;
47431;SDS011;33183;52.290;6.144;2022-11-15T16:32:52;3.65;;;1.17;;
47431;SDS011;33183;52.290;6.144;2022-11-15T16:35:18;7.60;;;1.30;;
47431;SDS011;33183;52.290;6.144;2022-11-15T16:37:43;1.75;;;0.90;;
47431;SDS011;33183;52.290;6.144;2022-11-15T16:40:24;5.43;;;0.95;;
47431;SDS011;33183;52.290;6.144;2022-11-15T16:42:54;1.17;;;0.80;;
47431;SDS011;33183;52.290;6.144;2022-11-15T16:45:20;3.15;;;0.93;;
47431;SDS011;33183;52.290;6.144;2022-11-15T16:47:46;2.05;;;0.82;;
47431;SDS011;33183;52.290;6.144;2022-11-15T16:50:19;2.58;;;1.10;;
47431;SDS011;33183;52.290;6.144;2022-11-15T16:52:55;1.70;;;0.73;;
47431;SDS011;33183;52.290;6.144;2022-11-15T16:55:22;1.52;;;0.93;;
47431;SDS011;33183;52.290;6.144;2022-11-15T16:57:49;2.47;;;0.90;;
47431;SDS011;33183;52.290;6.144;2022-11-15T17:00:15;2.00;;;0.70;;
47431;SDS011;33183;52.290;6.144;2022-11-15T17:02:45;2.00;;;1.10;;